Latest Weather Observations for Thevenard

IDS60801

Issued at 2:01 am CST Monday 29 August 2016 (issued every 30 minutes, with the page automatically refreshed every 10 minutes)

About weather observations | Map of weather stations | Latest weather observations for SA | Other Formats
Station Details ID: 018200 Name: THEVENARD WIND Lat: -32.18 Lon: 133.63 Height: 8.54 m
Data from the previous 72 hours. | See also: Recent months for locations in South Australia
Date/Time
CST
Temp
°C
App
Temp
°C
Dew
Point
°C
Rel
Hum
%
Delta-T
°C
Wind Press
QNH
hPa
Press
MSL
hPa
Rain since
9am
mm
Dir  Spd
km/h
Gust
km/h
Spd
kts
Gust
kts
29/02:00am - - - - - NNE 20 28 11 15 - - -
29/01:30am - - - - - NNE 26 39 14 21 - - -
29/01:00am - - - - - NNE 24 33 13 18 - - -
29/12:30am - - - - - NNE 24 30 13 16 - - -
29/12:00am - - - - - NNE 28 35 15 19 - - -
 
Date/Time
CST
Temp
°C
App
Temp
°C
Dew
Point
°C
Rel
Hum
%
Delta-T
°C
Wind Press
QNH
hPa
Press
MSL
hPa
Rain since
9am
mm
Dir  Spd
km/h
Gust
km/h
Spd
kts
Gust
kts
28/11:30pm - - - - - NE 30 35 16 19 - - -
28/11:00pm - - - - - NNE 26 32 14 17 - - -
28/10:30pm - - - - - NNE 30 35 16 19 - - -
28/10:00pm - - - - - NNE 30 35 16 19 - - -
28/09:30pm - - - - - NE 37 48 20 26 - - -
28/09:00pm - - - - - NE 32 41 17 22 - - -
28/08:30pm - - - - - NNE 37 46 20 25 - - -
28/08:00pm - - - - - NNE 35 46 19 25 - - -
28/07:30pm - - - - - NNE 44 65 24 35 - - -
28/07:23pm - - - - - NNE 46 65 25 35 - - -
28/07:20pm - - - - - NNE 44 59 24 32 - - -
28/07:00pm - - - - - NNE 35 41 19 22 - - -
28/06:30pm - - - - - NE 37 46 20 25 - - -
28/06:00pm - - - - - NNE 41 52 22 28 - - -
28/05:30pm - - - - - NNE 39 46 21 25 - - -
28/05:00pm - - - - - NE 35 43 19 23 - - -
28/04:30pm - - - - - NNE 37 48 20 26 - - -
28/04:00pm - - - - - NNE 30 33 16 18 - - -
28/03:30pm - - - - - NNE 50 63 27 34 - - -
28/03:07pm - - - - - NNE 48 67 26 36 - - -
28/03:01pm - - - - - N 35 56 19 30 - - -
28/03:00pm - - - - - N 35 50 19 27 - - -
28/02:30pm - - - - - N 44 57 24 31 - - -
28/02:00pm - - - - - NNE 43 57 23 31 - - -
28/01:30pm - - - - - NNE 39 52 21 28 - - -
28/01:00pm - - - - - NNE 37 46 20 25 - - -
28/12:30pm - - - - - NNE 41 52 22 28 - - -
28/12:00pm - - - - - NNE 39 50 21 27 - - -
28/11:30am - - - - - NNE 43 56 23 30 - - -
28/11:00am - - - - - NNE 41 57 22 31 - - -
28/10:30am - - - - - NNE 41 54 22 29 - - -
28/10:00am - - - - - NNE 43 56 23 30 - - -
28/09:30am - - - - - NNE 43 57 23 31 - - -
28/09:00am - - - - - NNE 48 63 26 34 - - -
28/08:30am - - - - - NNE 44 54 24 29 - - -
28/08:00am - - - - - NNE 43 52 23 28 - - -
28/07:30am - - - - - NNE 43 52 23 28 - - -
28/07:00am - - - - - NNE 44 54 24 29 - - -
28/06:30am - - - - - NNE 43 56 23 30 - - -
28/06:00am - - - - - NNE 44 56 24 30 - - -
28/05:30am - - - - - NNE 41 56 22 30 - - -
28/05:00am - - - - - NNE 43 52 23 28 - - -
28/04:30am - - - - - NNE 35 52 19 28 - - -
28/04:00am - - - - - NNE 35 43 19 23 - - -
28/03:30am - - - - - NNE 35 41 19 22 - - -
28/03:00am - - - - - NNE 35 46 19 25 - - -
28/02:30am - - - - - NNE 33 41 18 22 - - -
28/02:00am - - - - - NE 32 41 17 22 - - -
28/01:30am - - - - - NE 28 37 15 20 - - -
28/01:00am - - - - - NE 28 35 15 19 - - -
28/12:30am - - - - - NE 30 35 16 19 - - -
28/12:00am - - - - - NE 24 32 13 17 - - -
 
Date/Time
CST
Temp
°C
App
Temp
°C
Dew
Point
°C
Rel
Hum
%
Delta-T
°C
Wind Press
QNH
hPa
Press
MSL
hPa
Rain since
9am
mm
Dir  Spd
km/h
Gust
km/h
Spd
kts
Gust
kts
27/11:30pm - - - - - NE 15 20 8 11 - - -
27/11:00pm - - - - - NE 17 19 9 10 - - -
27/10:30pm - - - - - NE 13 15 7 8 - - -
27/10:00pm - - - - - NE 15 17 8 9 - - -
27/09:30pm - - - - - NE 19 20 10 11 - - -
27/09:00pm - - - - - NE 19 20 10 11 - - -
27/08:30pm - - - - - NE 17 19 9 10 - - -
27/08:00pm - - - - - NE 17 19 9 10 - - -
27/07:30pm - - - - - NE 20 24 11 13 - - -
27/07:00pm - - - - - NE 22 24 12 13 - - -
27/06:30pm - - - - - NNE 20 24 11 13 - - -
27/06:00pm - - - - - NE 24 28 13 15 - - -
27/05:30pm - - - - - NNE 32 39 17 21 - - -
27/05:00pm - - - - - NNE 30 33 16 18 - - -
27/04:30pm - - - - - NNE 26 30 14 16 - - -
27/04:00pm - - - - - NNE 28 33 15 18 - - -
27/03:30pm - - - - - NNE 30 35 16 19 - - -
27/03:00pm - - - - - NNE 26 33 14 18 - - -
27/02:30pm - - - - - NNE 24 32 13 17 - - -
27/02:00pm - - - - - N 24 32 13 17 - - -
27/01:30pm - - - - - NNE 30 43 16 23 - - -
27/01:00pm - - - - - N 28 35 15 19 - - -
27/12:30pm - - - - - N 30 37 16 20 - - -
27/12:00pm - - - - - N 33 41 18 22 - - -
27/11:30am - - - - - N 32 37 17 20 - - -
27/11:00am - - - - - N 32 41 17 22 - - -
27/10:30am - - - - - NNE 32 39 17 21 - - -
27/10:00am - - - - - NNE 30 37 16 20 - - -
27/09:30am - - - - - NNE 35 44 19 24 - - -
27/09:00am - - - - - NNE 33 43 18 23 - - -
27/08:30am - - - - - NNE 32 39 17 21 - - -
27/08:00am - - - - - NNE 33 41 18 22 - - -
27/07:30am - - - - - NNE 26 35 14 19 - - -
27/07:00am - - - - - NNE 32 37 17 20 - - -
27/06:30am - - - - - NNE 30 35 16 19 - - -
27/06:00am - - - - - NNE 32 39 17 21 - - -
27/05:30am - - - - - NNE 28 37 15 20 - - -
27/05:00am - - - - - NNE 26 32 14 17 - - -
27/04:30am - - - - - NNE 24 30 13 16 - - -
27/04:00am - - - - - NNE 24 28 13 15 - - -
27/03:30am - - - - - NNE 22 28 12 15 - - -
27/03:00am - - - - - NNE 26 32 14 17 - - -
27/02:30am - - - - - NNE 26 33 14 18 - - -
27/02:00am - - - - - NE 22 26 12 14 - - -
27/01:30am - - - - - NE 20 24 11 13 - - -
27/01:00am - - - - - NE 15 19 8 10 - - -
27/12:30am - - - - - NE 19 22 10 12 - - -
27/12:00am - - - - - NE 19 22 10 12 - - -
 
Date/Time
CST
Temp
°C
App
Temp
°C
Dew
Point
°C
Rel
Hum
%
Delta-T
°C
Wind Press
QNH
hPa
Press
MSL
hPa
Rain since
9am
mm
Dir  Spd
km/h
Gust
km/h
Spd
kts
Gust
kts
26/11:30pm - - - - - ENE 20 26 11 14 - - -
26/11:00pm - - - - - ENE 28 33 15 18 - - -
26/10:30pm - - - - - ENE 22 28 12 15 - - -
26/10:00pm - - - - - E 22 28 12 15 - - -
26/09:30pm - - - - - ESE 20 24 11 13 - - -
26/09:00pm - - - - - E 22 26 12 14 - - -
26/08:30pm - - - - - ESE 19 22 10 12 - - -
26/08:00pm - - - - - ESE 13 17 7 9 - - -
26/07:30pm - - - - - ESE 13 17 7 9 - - -
26/07:00pm - - - - - ESE 19 22 10 12 - - -
26/06:30pm - - - - - ESE 17 20 9 11 - - -
26/06:00pm - - - - - SE 22 24 12 13 - - -
26/05:30pm - - - - - SE 22 26 12 14 - - -
26/05:00pm - - - - - SE 24 26 13 14 - - -
26/04:30pm - - - - - SE 20 24 11 13 - - -
26/04:00pm - - - - - SE 20 26 11 14 - - -
26/03:30pm - - - - - SE 19 20 10 11 - - -
26/03:00pm - - - - - SE 19 20 10 11 - - -
26/02:30pm - - - - - SE 17 20 9 11 - - -
26/02:00pm - - - - - SE 15 17 8 9 - - -
26/01:30pm - - - - - SSE 11 13 6 7 - - -
26/01:00pm - - - - - SSE 9 11 5 6 - - -
26/12:30pm - - - - - SSW 6 7 3 4 - - -
26/12:00pm - - - - - SW 6 6 3 3 - - -
26/11:30am - - - - - SSW 2 4 1 2 - - -
26/11:00am - - - - - WNW 2 4 1 2 - - -
26/10:30am - - - - - NNW 2 4 1 2 - - -
26/10:00am - - - - - ENE 6 9 3 5 - - -
26/09:30am - - - - - NE 7 9 4 5 - - -
26/09:00am - - - - - NNE 13 15 7 8 - - -
26/08:30am - - - - - NE 13 17 7 9 - - -
26/08:00am - - - - - NNE 9 11 5 6 - - -
26/07:30am - - - - - NE 11 11 6 6 - - -
26/07:00am - - - - - ENE 9 11 5 6 - - -
26/06:30am - - - - - E 9 11 5 6 - - -
26/06:00am - - - - - E 6 9 3 5 - - -
26/05:30am - - - - - ESE 7 9 4 5 - - -
26/05:00am - - - - - E 7 9 4 5 - - -
26/04:30am - - - - - E 11 13 6 7 - - -
26/04:00am - - - - - E 13 17 7 9 - - -
26/03:30am - - - - - E 13 17 7 9 - - -
26/03:00am - - - - - E 17 19 9 10 - - -
26/02:30am - - - - - ESE 11 17 6 9 - - -

Other Formats:

Comma delimited format used in spreadsheet applications
http://www.bom.gov.au/fwo/IDS60801/IDS60801.95653.axf

JavaScript Object Notation format (JSON) in row-major order
http://www.bom.gov.au/fwo/IDS60801/IDS60801.95653.json